Time;durP1;ratioP1;P1;durP2;ratioP2;P2;SDS_P1;SDS_P2;PMS_P1;PMS_P2;Temp;Humidity;BMP_temperature;BMP_pressure;BME280_temperature;BME280_humidity;BME280_pressure;Samples;Min_cycle;Max_cycle;Signal;HPM_P1;HPM_P2
2021/09/25 00:00:30;;;;;;;7.78;3.60;;;;;;;16.11;40.20;100125.53;5091262;28;20034;-21
2021/09/25 00:02:56;;;;;;;7.80;3.50;;;;;;;16.13;39.92;100115.31;5091065;28;20035;-20
2021/09/25 00:05:24;;;;;;;7.18;3.72;;;;;;;16.07;39.85;100128.69;5091311;28;20031;-20
2021/09/25 00:07:50;;;;;;;6.63;3.88;;;;;;;15.65;40.63;100091.66;5091220;28;20058;-21
2021/09/25 00:10:16;;;;;;;6.40;3.55;;;;;;;15.64;40.55;100100.78;5090933;28;20040;-20
2021/09/25 00:12:41;;;;;;;4.80;2.83;;;;;;;15.92;40.82;100123.19;5091028;28;20412;-21
2021/09/25 00:15:07;;;;;;;7.03;3.53;;;;;;;15.86;41.34;100116.94;5091070;28;20460;-21
2021/09/25 00:17:33;;;;;;;6.07;3.33;;;;;;;15.56;41.89;100114.66;5091027;28;20553;-21
2021/09/25 00:19:58;;;;;;;6.93;3.60;;;;;;;15.62;42.30;100108.28;5091087;28;20393;-21
2021/09/25 00:22:24;;;;;;;6.68;3.50;;;;;;;15.74;41.79;100110.88;5091179;28;20048;-20
2021/09/25 00:24:49;;;;;;;6.80;3.67;;;;;;;15.60;42.55;100110.41;5090498;28;20411;-20
2021/09/25 00:27:14;;;;;;;5.95;3.22;;;;;;;15.84;42.08;100112.88;5090749;28;20024;-20
2021/09/25 00:29:40;;;;;;;7.15;3.65;;;;;;;16.04;41.42;100098.81;5091043;28;20484;-21
2021/09/25 00:32:06;;;;;;;6.53;3.67;;;;;;;15.84;41.92;100096.75;5090755;28;20075;-21
2021/09/25 00:34:31;;;;;;;5.53;3.05;;;;;;;15.57;42.52;100108.25;5090257;28;20079;-21
2021/09/25 00:36:57;;;;;;;6.50;3.50;;;;;;;15.67;42.52;100097.59;5090648;28;20074;-21
2021/09/25 00:39:22;;;;;;;7.20;3.40;;;;;;;15.64;42.44;100090.03;5090455;28;20051;-20
2021/09/25 00:41:48;;;;;;;5.88;3.20;;;;;;;15.81;42.19;100091.84;5090612;28;20035;-20
2021/09/25 00:44:13;;;;;;;6.38;3.42;;;;;;;15.80;42.57;100109.06;5090495;28;20032;-20
2021/09/25 00:46:39;;;;;;;7.38;3.33;;;;;;;15.80;41.66;100109.88;5090018;28;20031;-20
2021/09/25 00:49:04;;;;;;;8.50;3.28;;;;;;;15.92;41.64;100092.78;5090469;28;20047;-21
2021/09/25 00:51:30;;;;;;;7.47;3.45;;;;;;;16.10;41.56;100107.75;5090370;28;20032;-20
2021/09/25 00:53:55;;;;;;;6.53;3.13;;;;;;;15.57;43.55;100100.19;5089588;28;20040;-21
2021/09/25 00:56:22;;;;;;;7.15;3.10;;;;;;;14.63;43.99;100122.53;5090363;28;20101;-21
2021/09/25 00:58:47;;;;;;;5.90;3.25;;;;;;;14.31;44.97;100131.06;5055488;28;20024;-21
2021/09/25 01:01:13;;;;;;;6.75;3.25;;;;;;;14.39;45.15;100133.34;5090090;28;20085;-21
2021/09/25 01:03:38;;;;;;;7.32;3.63;;;;;;;14.55;44.89;100112.16;5090096;28;20416;-21
2021/09/25 01:06:04;;;;;;;7.82;3.63;;;;;;;13.92;46.49;100095.25;5072143;28;20035;-21
2021/09/25 01:08:29;;;;;;;6.20;3.20;;;;;;;14.32;46.14;100116.59;5090012;28;20043;-21
2021/09/25 01:10:55;;;;;;;7.03;3.55;;;;;;;14.72;44.82;100131.78;5089895;28;20028;-20
2021/09/25 01:13:21;;;;;;;7.03;3.67;;;;;;;14.96;44.35;100134.28;5090050;28;20496;-21
2021/09/25 01:15:47;;;;;;;8.18;4.07;;;;;;;15.09;43.54;100120.50;5071829;28;20023;-21
2021/09/25 01:18:12;;;;;;;71.35;7.65;;;;;;;15.53;43.15;100135.84;5089711;28;20389;-21
2021/09/25 01:20:38;;;;;;;6.88;3.85;;;;;;;14.92;44.58;100112.47;5089640;28;20437;-21
2021/09/25 01:23:03;;;;;;;7.43;3.53;;;;;;;15.20;43.52;100127.66;5089736;28;20035;-21
2021/09/25 01:25:30;;;;;;;7.47;3.78;;;;;;;15.29;43.61;100135.28;5089580;28;20028;-21
2021/09/25 01:27:55;;;;;;;8.40;3.60;;;;;;;15.19;43.33;100106.41;5071517;28;20038;-21
2021/09/25 01:30:21;;;;;;;6.97;3.80;;;;;;;15.40;43.44;100119.03;5071183;28;20032;-21
2021/09/25 01:32:47;;;;;;;6.88;3.22;;;;;;;15.48;43.23;100139.28;5089332;28;20039;-20
2021/09/25 01:35:13;;;;;;;6.90;3.33;;;;;;;14.65;45.66;100123.09;5071343;28;20105;-20
2021/09/25 01:37:40;;;;;;;8.05;3.83;;;;;;;14.68;45.05;100130.63;5089365;28;20055;-21
2021/09/25 01:40:06;;;;;;;64.75;7.07;;;;;;;14.84;45.20;100132.50;5089571;28;20067;-21
2021/09/25 01:42:32;;;;;;;6.22;3.20;;;;;;;14.69;45.58;100121.53;5089076;28;20532;-20
2021/09/25 01:44:57;;;;;;;8.75;3.67;;;;;;;14.61;45.37;100121.94;5089318;28;20032;-21
2021/09/25 01:47:23;;;;;;;7.50;3.53;;;;;;;14.58;46.12;100120.53;5089346;28;20039;-21
2021/09/25 01:49:48;;;;;;;19.05;4.75;;;;;;;14.54;45.78;100118.56;5089623;28;20024;-21
2021/09/25 01:52:14;;;;;;;7.50;3.60;;;;;;;14.14;46.79;100114.13;5089153;28;20028;-21
2021/09/25 01:54:40;;;;;;;7.20;3.53;;;;;;;14.73;45.45;100130.72;5088897;28;20093;-21
2021/09/25 01:57:05;;;;;;;6.20;3.70;;;;;;;14.86;45.78;100122.31;5089167;28;20520;-20
2021/09/25 01:59:31;;;;;;;6.97;3.38;;;;;;;14.84;45.39;100140.56;5089171;28;20039;-21
2021/09/25 02:01:56;;;;;;;7.18;3.65;;;;;;;14.56;46.03;100137.97;5089214;28;20509;-21
2021/09/25 02:04:22;;;;;;;8.52;4.32;;;;;;;14.17;46.89;100127.88;5089209;28;20043;-20
2021/09/25 02:06:47;;;;;;;9.82;3.83;;;;;;;14.25;46.77;100150.81;5088015;28;20468;-21
2021/09/25 02:09:13;;;;;;;8.15;3.40;;;;;;;14.01;47.09;100164.31;5089440;28;20039;-20
2021/09/25 02:11:38;;;;;;;5.75;3.47;;;;;;;13.87;47.64;100136.16;5089025;28;20039;-20
2021/09/25 02:14:04;;;;;;;8.60;3.60;;;;;;;14.53;45.83;100151.84;5089019;28;20031;-21
2021/09/25 02:16:29;;;;;;;6.18;3.28;;;;;;;13.66;48.09;100156.38;5089026;28;20023;-21
2021/09/25 02:18:55;;;;;;;6.70;3.38;;;;;;;13.98;46.89;100180.09;5088872;28;20028;-21
2021/09/25 02:21:20;;;;;;;6.07;3.63;;;;;;;13.82;47.58;100170.91;5088984;28;20024;-20
2021/09/25 02:23:46;;;;;;;8.35;3.47;;;;;;;14.17;46.52;100178.03;5070872;28;20044;-21
2021/09/25 02:26:11;;;;;;;6.47;3.55;;;;;;;14.53;45.48;100181.38;5088984;28;20452;-21
2021/09/25 02:28:37;;;;;;;7.28;3.35;;;;;;;14.78;44.80;100159.53;5088607;28;20035;-20
2021/09/25 02:31:02;;;;;;;5.93;3.35;;;;;;;14.47;44.94;100178.56;5088676;28;20105;-21
2021/09/25 02:33:28;;;;;;;8.77;3.90;;;;;;;14.79;44.26;100175.41;5088618;28;20079;-21
2021/09/25 02:35:54;;;;;;;8.57;3.75;;;;;;;14.61;44.54;100181.00;5088888;28;20097;-21
2021/09/25 02:38:19;;;;;;;7.57;3.60;;;;;;;14.96;43.77;100172.69;5088696;28;20028;-21
2021/09/25 02:40:45;;;;;;;10.63;3.80;;;;;;;15.07;42.98;100171.78;5088572;28;20024;-21
2021/09/25 02:43:12;;;;;;;5.80;3.17;;;;;;;15.29;42.89;100164.84;5088747;28;20077;-21
2021/09/25 02:45:38;;;;;;;8.05;3.28;;;;;;;15.28;42.48;100158.63;5088750;28;20067;-21
2021/09/25 02:48:03;;;;;;;6.80;3.53;;;;;;;15.48;42.25;100187.66;5088793;28;20055;-21
2021/09/25 02:50:29;;;;;;;5.63;3.38;;;;;;;15.56;42.45;100176.50;5088708;28;20020;-21
2021/09/25 02:52:54;;;;;;;8.20;3.05;;;;;;;15.58;41.90;100187.81;5088458;28;20036;-21
2021/09/25 02:55:20;;;;;;;10.20;3.20;;;;;;;15.74;42.03;100185.34;5088894;28;20032;-20
2021/09/25 02:57:45;;;;;;;9.43;3.67;;;;;;;15.52;41.93;100190.69;5088799;28;20111;-20
2021/09/25 03:00:14;;;;;;;6.97;3.60;;;;;;;15.34;41.88;100164.91;5088661;28;20476;-21
2021/09/25 03:02:39;;;;;;;;;;;;;;;15.63;42.14;100190.56;5088751;28;20060;-21
2021/09/25 03:05:05;;;;;;;5.43;3.20;;;;;;;15.82;41.19;100201.84;5088644;28;20351;-21
2021/09/25 03:07:30;;;;;;;7.95;3.30;;;;;;;15.33;42.66;100180.22;5088643;28;20020;-21
2021/09/25 03:09:56;;;;;;;5.80;3.17;;;;;;;15.44;43.43;100197.28;5088721;28;20553;-21
2021/09/25 03:12:21;;;;;;;12.85;4.20;;;;;;;15.63;42.59;100211.25;5088444;28;20024;-21
2021/09/25 03:14:47;;;;;;;6.45;3.60;;;;;;;14.76;45.47;100208.06;5088426;28;20040;-21
2021/09/25 03:17:12;;;;;;;10.80;3.80;;;;;;;14.37;46.10;100210.59;5090103;28;20020;-21
2021/09/25 03:19:38;;;;;;;7.10;3.70;;;;;;;14.13;47.00;100217.09;5092102;28;20028;-20
2021/09/25 03:22:03;;;;;;;7.72;3.95;;;;;;;13.97;47.36;100221.34;5091955;28;20420;-21
2021/09/25 03:24:29;;;;;;;9.32;4.32;;;;;;;14.18;47.21;100217.19;5092489;28;20040;-20
2021/09/25 03:26:54;;;;;;;9.50;4.05;;;;;;;14.38;46.05;100211.41;5091792;28;20024;-21
2021/09/25 03:29:21;;;;;;;11.43;3.67;;;;;;;14.23;46.14;100211.94;5092233;28;20046;-21
2021/09/25 03:31:46;;;;;;;8.27;4.03;;;;;;;14.64;45.56;100223.44;5091685;28;20518;-21
2021/09/25 03:34:14;;;;;;;12.00;4.05;;;;;;;14.58;45.81;100221.72;5091555;28;20056;-20
2021/09/25 03:36:40;;;;;;;9.57;3.80;;;;;;;14.45;45.28;100231.66;5091488;28;20028;-21
2021/09/25 03:39:05;;;;;;;8.75;4.20;;;;;;;14.49;45.19;100229.31;5091902;28;20040;-21
2021/09/25 03:41:31;;;;;;;11.20;3.90;;;;;;;14.56;45.10;100235.38;5092012;28;20031;-20
2021/09/25 03:43:56;;;;;;;16.70;4.80;;;;;;;14.63;44.60;100222.63;5091787;28;20050;-21
2021/09/25 03:46:22;;;;;;;16.80;5.75;;;;;;;14.87;44.05;100238.59;5092208;28;20502;-21
2021/09/25 03:48:47;;;;;;;11.32;4.72;;;;;;;14.52;44.65;100239.56;5091520;28;20032;-21
2021/09/25 03:51:13;;;;;;;9.23;3.72;;;;;;;14.53;45.40;100241.22;5091325;28;20055;-20
2021/09/25 03:53:38;;;;;;;11.77;4.53;;;;;;;14.63;44.39;100243.31;5091583;28;20035;-21
2021/09/25 03:56:07;;;;;;;10.23;4.22;;;;;;;14.50;45.01;100256.97;5091478;28;20020;-21
2021/09/25 03:58:37;;;;;;;9.90;4.40;;;;;;;14.55;45.50;100236.41;5091225;28;20466;-20
2021/09/25 04:01:02;;;;;;;11.77;4.22;;;;;;;14.70;44.40;100243.94;5073312;28;20024;-21
2021/09/25 04:03:28;;;;;;;10.07;3.95;;;;;;;14.57;44.81;100255.00;5091305;28;20030;-21
2021/09/25 04:05:55;;;;;;;16.88;4.68;;;;;;;14.75;44.84;100273.59;5091098;28;20035;-21
2021/09/25 04:08:20;;;;;;;13.00;5.45;;;;;;;14.71;45.54;100264.38;5091132;28;20466;-21
2021/09/25 04:10:46;;;;;;;9.48;4.75;;;;;;;14.43;45.97;100252.56;5090967;28;20035;-20
2021/09/25 04:13:12;;;;;;;9.82;4.15;;;;;;;14.44;45.77;100262.25;5090955;28;20060;-21
2021/09/25 04:15:37;;;;;;;9.95;3.47;;;;;;;14.50;45.80;100273.06;5091037;28;20024;-21
2021/09/25 04:18:03;;;;;;;8.93;3.45;;;;;;;14.66;45.84;100269.66;5091047;28;20031;-21
2021/09/25 04:20:29;;;;;;;6.63;2.85;;;;;;;14.19;46.70;100267.91;5090927;28;20024;-20
2021/09/25 04:22:54;;;;;;;7.32;3.40;;;;;;;13.92;48.33;100283.72;5090635;28;20100;-20
2021/09/25 04:25:19;;;;;;;7.65;3.70;;;;;;;13.97;46.77;100272.28;5090844;28;20024;-21
2021/09/25 04:27:49;;;;;;;8.75;3.38;;;;;;;13.64;48.49;100290.59;5090092;28;20487;-21
2021/09/25 04:30:14;;;;;;;5.45;2.92;;;;;;;12.36;52.31;100319.47;5090315;28;20024;-21
2021/09/25 04:32:40;;;;;;;7.47;4.10;;;;;;;12.04;52.98;100303.59;5090433;28;20137;-20
2021/09/25 04:35:06;;;;;;;8.60;3.67;;;;;;;11.89;54.86;100318.34;5090547;28;20043;-20
2021/09/25 04:37:31;;;;;;;9.00;4.25;;;;;;;12.73;52.38;100335.47;5090636;28;20454;-21
2021/09/25 04:39:56;;;;;;;10.32;3.75;;;;;;;12.69;52.89;100320.91;5090429;28;20039;-25
2021/09/25 04:42:22;;;;;;;11.70;3.58;;;;;;;13.14;50.71;100312.44;5090799;28;20032;-21
2021/09/25 04:44:47;;;;;;;8.82;4.10;;;;;;;13.28;51.32;100337.16;5090478;28;20850;-20
2021/09/25 04:47:13;;;;;;;11.95;4.07;;;;;;;13.57;50.30;100324.75;5090306;28;20129;-21
2021/09/25 04:49:38;;;;;;;9.77;3.85;;;;;;;13.80;49.63;100334.66;5090367;28;20093;-21
2021/09/25 04:52:04;;;;;;;135.80;11.65;;;;;;;14.01;48.67;100314.47;5090395;28;20420;-21
2021/09/25 04:54:30;;;;;;;17.17;4.30;;;;;;;14.40;47.80;100344.25;5072242;28;20120;-21
2021/09/25 04:56:55;;;;;;;18.80;4.50;;;;;;;14.20;49.29;100343.81;5089942;28;20032;-21
2021/09/25 04:59:21;;;;;;;37.70;7.10;;;;;;;14.75;47.35;100362.16;5090211;28;20032;-20
2021/09/25 05:01:46;;;;;;;40.65;6.53;;;;;;;14.87;47.14;100359.41;5090162;28;20039;-21
2021/09/25 05:04:12;;;;;;;37.97;6.85;;;;;;;14.27;48.82;100349.91;5090266;28;20495;-20
2021/09/25 05:06:38;;;;;;;46.17;9.13;;;;;;;14.48;47.53;100353.81;5089736;28;20491;-21
2021/09/25 05:09:03;;;;;;;27.10;6.53;;;;;;;14.79;47.01;100357.97;5089972;28;20032;-21
2021/09/25 05:11:29;;;;;;;16.60;5.75;;;;;;;15.27;45.63;100348.59;5072169;28;20544;-21
2021/09/25 05:13:54;;;;;;;22.10;5.72;;;;;;;15.23;46.34;100363.56;5089930;28;20024;-21
2021/09/25 05:16:20;;;;;;;34.63;7.47;;;;;;;15.65;45.35;100370.41;5089910;28;20028;-21
2021/09/25 05:18:45;;;;;;;28.35;6.65;;;;;;;15.77;45.75;100381.13;5089763;28;20039;-21
2021/09/25 05:21:11;;;;;;;27.58;6.80;;;;;;;15.53;45.54;100367.84;5090101;28;20035;-21
2021/09/25 05:23:36;;;;;;;20.85;5.57;;;;;;;15.80;45.36;100373.41;5089729;28;20028;-21
2021/09/25 05:26:03;;;;;;;8.15;4.32;;;;;;;15.78;43.75;100351.31;5089742;28;20039;-21
2021/09/25 05:28:29;;;;;;;6.68;3.45;;;;;;;16.09;42.70;100359.81;5089735;28;20483;-21
2021/09/25 05:30:55;;;;;;;8.30;3.45;;;;;;;16.64;42.10;100387.72;5071117;28;20042;-21
2021/09/25 05:33:21;;;;;;;11.60;3.90;;;;;;;16.76;43.01;100399.16;5089256;28;20476;-20
2021/09/25 05:35:46;;;;;;;11.30;4.70;;;;;;;16.52;43.06;100385.13;5089664;28;20077;-20
2021/09/25 05:38:12;;;;;;;14.00;5.43;;;;;;;16.94;42.10;100403.44;5089558;28;20110;-21
2021/09/25 05:40:38;;;;;;;10.60;4.40;;;;;;;17.45;41.26;100409.34;5088975;28;20036;-20
2021/09/25 05:43:03;;;;;;;8.65;4.30;;;;;;;17.57;41.10;100401.09;5089447;28;20036;-21
2021/09/25 05:45:29;;;;;;;9.82;4.22;;;;;;;17.82;40.34;100408.56;5089302;28;20388;-21
2021/09/25 05:47:54;;;;;;;9.45;4.47;;;;;;;17.82;39.54;100421.22;5089153;28;20906;-21
2021/09/25 05:50:20;;;;;;;9.77;3.88;;;;;;;18.10;39.32;100409.28;5089308;28;20032;-21
2021/09/25 05:52:45;;;;;;;8.70;3.63;;;;;;;18.01;39.67;100416.28;5089058;28;20084;-20
2021/09/25 05:55:11;;;;;;;8.07;3.60;;;;;;;18.13;39.16;100433.09;5089303;28;20028;-21
2021/09/25 05:57:36;;;;;;;7.82;3.40;;;;;;;18.10;39.13;100413.88;5089584;28;20140;-21
2021/09/25 06:00:04;;;;;;;10.60;3.47;;;;;;;18.44;39.04;100436.75;5089122;28;20023;-21
2021/09/25 06:02:30;;;;;;;6.45;3.85;;;;;;;18.51;38.44;100424.91;5089418;28;20750;-21
2021/09/25 06:04:56;;;;;;;8.32;3.38;;;;;;;18.76;37.93;100443.94;5088775;28;20028;-21
2021/09/25 06:07:21;;;;;;;5.95;3.05;;;;;;;19.08;36.72;100440.28;5088939;28;20036;-21
2021/09/25 06:09:46;;;;;;;6.07;3.00;;;;;;;19.20;36.67;100438.16;5089118;28;20024;-21
2021/09/25 06:12:12;;;;;;;6.63;3.63;;;;;;;19.25;36.97;100440.88;5089007;28;20043;-21
2021/09/25 06:14:38;;;;;;;7.25;2.90;;;;;;;19.28;36.38;100440.34;5088807;28;20411;-21
2021/09/25 06:17:04;;;;;;;5.85;2.78;;;;;;;19.39;36.84;100440.34;5089061;28;20031;-21
2021/09/25 06:19:29;;;;;;;5.72;3.15;;;;;;;19.62;36.04;100449.88;5088905;28;20092;-21
2021/09/25 06:21:54;;;;;;;6.78;3.20;;;;;;;19.78;35.99;100443.41;5088901;28;20113;-21
2021/09/25 06:24:20;;;;;;;8.60;3.35;;;;;;;19.78;36.32;100448.00;5089171;28;20028;-21
2021/09/25 06:26:46;;;;;;;6.10;3.03;;;;;;;20.06;35.86;100452.88;5088703;28;20081;-21
2021/09/25 06:29:11;;;;;;;5.90;2.60;;;;;;;19.98;35.80;100448.00;5088837;28;20446;-21
2021/09/25 06:31:37;;;;;;;7.15;2.97;;;;;;;20.12;36.03;100453.66;5088517;28;20040;-21
2021/09/25 06:34:02;;;;;;;6.55;2.85;;;;;;;20.20;35.64;100457.69;5088540;28;20048;-21
2021/09/25 06:36:28;;;;;;;6.70;2.97;;;;;;;20.39;35.30;100469.59;5088822;28;20024;-21
2021/09/25 06:38:53;;;;;;;7.43;2.95;;;;;;;20.45;35.64;100463.09;5096678;28;20032;-21
2021/09/25 06:41:19;;;;;;;5.72;2.90;;;;;;;20.51;35.71;100460.34;5094019;28;20028;-21
2021/09/25 06:43:45;;;;;;;6.50;3.15;;;;;;;20.84;35.24;100477.88;5088680;28;20028;-21
2021/09/25 06:46:11;;;;;;;7.00;2.83;;;;;;;21.10;34.41;100472.34;5088503;28;20085;-21
2021/09/25 06:48:37;;;;;;;5.95;2.70;;;;;;;21.17;34.46;100456.59;5088365;28;20711;-21
2021/09/25 06:51:03;;;;;;;5.53;2.75;;;;;;;21.24;34.48;100463.31;5088524;28;20024;-21
2021/09/25 06:53:28;;;;;;;5.18;2.60;;;;;;;21.48;33.99;100465.38;5091716;28;20032;-21
2021/09/25 06:55:54;;;;;;;6.38;2.85;;;;;;;21.42;33.47;100442.88;5092687;28;20031;-21
2021/09/25 06:58:19;;;;;;;7.97;3.10;;;;;;;21.73;33.47;100474.41;5092850;28;20035;-21
2021/09/25 07:00:47;;;;;;;5.07;2.80;;;;;;;21.88;33.30;100477.00;5091918;28;20039;-21
2021/09/25 07:03:13;;;;;;;7.35;3.08;;;;;;;21.67;33.73;100460.88;5092464;28;20036;-21
2021/09/25 07:05:38;;;;;;;6.47;3.33;;;;;;;22.17;33.57;100468.03;5092388;28;20060;-20
2021/09/25 07:08:04;;;;;;;5.28;2.90;;;;;;;22.44;33.05;100490.09;5092257;28;20066;-20
2021/09/25 07:10:30;;;;;;;7.70;3.22;;;;;;;22.24;33.49;100496.53;5092801;28;20508;-20
2021/09/25 07:12:55;;;;;;;5.38;3.13;;;;;;;22.51;33.32;100497.09;5092065;28;20043;-21
2021/09/25 07:15:20;;;;;;;5.47;3.10;;;;;;;22.22;33.05;100495.16;5092285;28;20027;-21
2021/09/25 07:17:46;;;;;;;5.05;2.80;;;;;;;22.26;33.70;100493.53;5092439;28;20039;-20
2021/09/25 07:20:12;;;;;;;6.68;3.30;;;;;;;22.46;32.92;100496.03;5092366;28;20839;-21
2021/09/25 07:22:38;;;;;;;6.05;2.80;;;;;;;22.51;32.90;100483.50;5091707;28;20032;-21
2021/09/25 07:25:03;;;;;;;7.15;3.17;;;;;;;22.55;32.53;100479.91;5092317;28;20088;-21
2021/09/25 07:27:29;;;;;;;8.25;3.15;;;;;;;22.66;32.23;100491.50;5092038;28;20419;-20
2021/09/25 07:29:54;;;;;;;7.60;3.55;;;;;;;22.83;32.63;100491.03;5091930;28;20796;-21
2021/09/25 07:32:20;;;;;;;7.20;3.50;;;;;;;22.98;32.20;100498.97;5091857;28;20047;-20
2021/09/25 07:34:45;;;;;;;5.47;3.35;;;;;;;23.18;31.40;100475.38;5091627;28;20060;-21
2021/09/25 07:37:11;;;;;;;6.93;4.05;;;;;;;23.16;31.63;100497.41;5091842;28;20504;-21
2021/09/25 07:39:37;;;;;;;5.95;3.03;;;;;;;23.45;31.55;100493.75;5091728;28;20031;-23
2021/09/25 07:42:03;;;;;;;5.63;3.08;;;;;;;23.41;31.96;100493.53;5091741;28;20032;-22
2021/09/25 07:44:28;;;;;;;8.13;3.47;;;;;;;23.36;32.19;100492.81;5091547;28;20028;-22
2021/09/25 07:46:54;;;;;;;4.75;3.20;;;;;;;23.49;31.43;100502.16;5091463;28;20027;-22
2021/09/25 07:49:19;;;;;;;6.63;3.17;;;;;;;23.62;31.72;100502.22;5091407;28;20050;-22
2021/09/25 07:51:45;;;;;;;5.90;3.00;;;;;;;23.74;31.29;100487.31;5091502;28;20034;-22
2021/09/25 07:54:10;;;;;;;7.93;3.53;;;;;;;23.97;30.58;100502.78;5091645;28;20110;-22
2021/09/25 07:56:36;;;;;;;7.13;3.38;;;;;;;24.14;30.51;100501.41;5091559;28;20094;-22
2021/09/25 07:59:01;;;;;;;6.97;3.35;;;;;;;24.23;30.81;100483.25;5091402;28;20036;-22
2021/09/25 08:01:27;;;;;;;5.70;3.00;;;;;;;24.58;30.64;100489.16;5091360;28;20035;-22
2021/09/25 08:03:52;;;;;;;6.47;3.30;;;;;;;24.66;30.21;100485.75;5091322;28;20477;-22
2021/09/25 08:06:19;;;;;;;6.22;3.20;;;;;;;24.50;29.83;100473.50;5091079;28;20028;-22
2021/09/25 08:08:45;;;;;;;6.50;3.08;;;;;;;24.51;29.62;100477.88;5091100;28;20040;-22
2021/09/25 08:11:10;;;;;;;5.72;3.30;;;;;;;24.83;29.29;100479.69;5091305;28;20062;-22
2021/09/25 08:13:36;;;;;;;5.78;2.90;;;;;;;24.84;30.20;100482.09;5091129;28;20707;-22
2021/09/25 08:16:01;;;;;;;5.10;3.10;;;;;;;25.00;29.49;100485.31;5091143;28;20031;-22
2021/09/25 08:18:28;;;;;;;8.05;3.22;;;;;;;25.19;29.41;100487.09;5091133;28;20032;-22
2021/09/25 08:20:53;;;;;;;6.53;3.17;;;;;;;25.39;29.16;100496.78;5090590;28;20034;-22
2021/09/25 08:23:19;;;;;;;6.53;3.13;;;;;;;25.53;29.49;100497.56;5090893;28;20028;-22
2021/09/25 08:25:44;;;;;;;4.60;2.72;;;;;;;25.31;28.94;100495.59;5091000;28;20027;-22
2021/09/25 08:28:10;;;;;;;7.07;3.03;;;;;;;25.40;29.03;100499.22;5090786;28;20458;-22
2021/09/25 08:30:35;;;;;;;8.63;3.38;;;;;;;25.55;28.86;100492.59;5090550;28;20054;-22
2021/09/25 08:33:01;;;;;;;5.00;2.60;;;;;;;25.51;28.03;100497.06;5090952;28;20036;-22
2021/09/25 08:35:28;;;;;;;5.50;2.97;;;;;;;25.81;28.38;100489.25;5090587;28;20067;-22
2021/09/25 08:37:53;;;;;;;4.63;2.67;;;;;;;26.06;28.51;100477.69;5090760;28;20471;-22
2021/09/25 08:40:21;;;;;;;7.75;3.22;;;;;;;26.06;27.87;100488.63;5090651;28;20047;-22
2021/09/25 08:42:47;;;;;;;4.20;2.55;;;;;;;26.14;27.71;100483.53;5090216;28;20540;-22
2021/09/25 08:45:12;;;;;;;11.70;3.35;;;;;;;26.08;27.79;100479.31;5090777;28;20044;-22
2021/09/25 08:47:38;;;;;;;6.45;3.00;;;;;;;26.32;27.65;100476.25;5090388;28;20024;-22
2021/09/25 08:50:04;;;;;;;7.55;2.65;;;;;;;26.48;27.06;100487.53;5090387;28;20513;-22
2021/09/25 08:52:30;;;;;;;5.22;2.63;;;;;;;26.46;27.41;100485.94;5090478;28;20081;-22
2021/09/25 08:54:55;;;;;;;4.88;2.80;;;;;;;26.75;27.73;100487.34;5090062;28;20024;-22
2021/09/25 08:57:21;;;;;;;6.30;2.50;;;;;;;26.92;26.82;100500.28;5090256;28;20027;-21
2021/09/25 08:59:46;;;;;;;4.60;2.17;;;;;;;26.48;26.59;100485.63;5090285;28;20050;-22
2021/09/25 09:02:17;;;;;;;4.95;2.70;;;;;;;26.62;27.79;100477.34;5090210;28;20108;-22
2021/09/25 09:04:46;;;;;;;5.05;2.55;;;;;;;26.66;27.10;100467.38;5089865;28;20032;-22
2021/09/25 09:07:13;;;;;;;4.30;2.60;;;;;;;26.88;26.91;100485.63;5090026;28;20055;-22
2021/09/25 09:09:43;;;;;;;4.55;2.50;;;;;;;27.07;26.67;100479.84;5090143;28;20032;-22
2021/09/25 09:12:08;;;;;;;3.55;2.45;;;;;;;27.19;26.34;100480.03;5090024;28;20043;-22
2021/09/25 09:14:46;;;;;;;5.40;2.30;;;;;;;27.36;26.38;100472.97;5089348;28;20020;-22
2021/09/25 09:17:16;;;;;;;5.65;2.45;;;;;;;27.27;26.33;100475.72;5089978;28;20066;-22
2021/09/25 09:19:41;;;;;;;6.57;2.60;;;;;;;26.97;26.47;100466.47;5089931;28;20106;-22
2021/09/25 09:22:07;;;;;;;4.30;2.40;;;;;;;26.88;26.54;100474.66;5089839;28;20119;-22
2021/09/25 09:24:43;;;;;;;4.72;2.70;;;;;;;27.47;28.20;100468.00;5089385;28;20514;-22
2021/09/25 09:27:17;;;;;;;4.10;2.33;;;;;;;27.71;26.03;100475.72;5089722;28;20487;-22
2021/09/25 09:29:42;;;;;;;5.53;2.40;;;;;;;27.52;26.46;100465.88;5089838;28;20093;-22
2021/09/25 09:32:11;;;;;;;4.43;2.55;;;;;;;27.33;26.71;100473.63;5089612;28;20039;-22
2021/09/25 09:34:40;;;;;;;2.78;2.20;;;;;;;27.45;26.51;100482.00;5051740;28;20053;-21
2021/09/25 09:37:18;;;;;;;7.32;2.70;;;;;;;27.63;26.29;100477.34;5069312;28;20722;-22
2021/09/25 09:39:45;;;;;;;5.38;2.40;;;;;;;27.67;26.22;100489.25;5068934;28;20025;-22
2021/09/25 09:42:10;;;;;;;4.45;2.33;;;;;;;27.35;27.10;100483.13;5068944;28;20029;-22
2021/09/25 09:44:36;;;;;;;4.57;2.47;;;;;;;27.74;26.23;100495.03;5069108;28;20038;-22
2021/09/25 09:47:04;;;;;;;7.13;3.10;;;;;;;27.81;25.97;100489.09;5069241;28;20107;-22
2021/09/25 09:49:34;;;;;;;4.70;2.30;;;;;;;28.12;25.63;100471.63;5068988;28;20031;-22
2021/09/25 09:52:10;;;;;;;4.38;2.38;;;;;;;28.31;25.51;100474.78;5069293;28;20577;-22
2021/09/25 09:54:37;;;;;;;4.30;2.70;;;;;;;27.89;26.44;100471.03;5068755;28;20064;-22
2021/09/25 09:57:18;;;;;;;6.47;2.70;;;;;;;27.93;26.08;100475.56;5069105;28;20064;-22
2021/09/25 09:59:46;;;;;;;7.45;2.67;;;;;;;28.15;25.87;100476.44;5069039;28;20501;-22
2021/09/25 10:02:11;;;;;;;;;;;;;;;28.45;25.99;100480.84;5069391;28;20047;-22
2021/09/25 10:04:37;;;;;;;5.60;2.53;;;;;;;28.57;25.52;100493.09;5066310;28;19912;-22
2021/09/25 10:07:03;;;;;;;5.47;2.60;;;;;;;28.24;25.71;100466.28;5068655;28;20279;-22
2021/09/25 10:09:30;;;;;;;5.07;2.40;;;;;;;28.62;25.72;100484.66;5069023;28;20028;-22
2021/09/25 10:12:06;;;;;;;5.00;2.85;;;;;;;28.41;25.82;100479.09;5068359;28;20033;-22
2021/09/25 10:14:33;;;;;;;3.38;2.28;;;;;;;28.87;25.90;100485.66;5067458;28;20064;-22
2021/09/25 10:17:00;;;;;;;8.27;2.80;;;;;;;29.02;25.28;100487.03;5068951;28;20029;-22
2021/09/25 10:19:30;;;;;;;6.00;2.80;;;;;;;28.80;24.88;100483.44;5068972;28;20094;-22
2021/09/25 10:22:17;;;;;;;5.22;2.40;;;;;;;28.88;25.23;100475.50;5068804;28;20526;-22
2021/09/25 10:24:54;;;;;;;5.35;2.50;;;;;;;29.58;24.50;100470.28;5066703;28;20060;-22
2021/09/25 10:27:19;;;;;;;4.80;2.60;;;;;;;29.51;25.41;100481.84;5071113;28;20059;-22
2021/09/25 10:29:47;;;;;;;3.83;2.47;;;;;;;29.03;24.39;100467.50;5073021;28;20028;-22
2021/09/25 10:32:31;;;;;;;7.07;2.90;;;;;;;29.12;24.70;100486.69;5072623;28;20043;-22
2021/09/25 10:35:15;;;;;;;4.57;2.60;;;;;;;29.80;24.77;100480.16;5088094;28;20566;-22
2021/09/25 10:37:50;;;;;;;5.68;2.80;;;;;;;29.99;24.35;100471.38;5092948;28;20161;-22
2021/09/25 10:40:20;;;;;;;7.28;3.20;;;;;;;30.53;23.45;100459.44;5093227;28;20036;-22
2021/09/25 10:42:46;;;;;;;4.75;2.70;;;;;;;30.26;23.56;100458.94;5092738;28;20063;-22
2021/09/25 10:45:31;;;;;;;5.65;2.80;;;;;;;29.90;24.11;100449.47;5092754;28;20442;-22
2021/09/25 10:48:13;;;;;;;4.88;2.63;;;;;;;29.89;23.69;100453.34;5092828;28;20445;-22
2021/09/25 10:51:09;;;;;;;5.47;2.47;;;;;;;29.92;23.63;100458.19;5092559;28;20109;-22
2021/09/25 10:53:37;;;;;;;5.28;2.47;;;;;;;29.82;24.40;100431.13;5092668;28;20073;-22
2021/09/25 10:56:15;;;;;;;4.63;2.70;;;;;;;29.65;24.29;100448.59;5092743;28;20585;-22
2021/09/25 10:58:41;;;;;;;3.97;2.55;;;;;;;30.06;23.48;100446.88;5092607;28;20036;-22
2021/09/25 11:01:16;;;;;;;4.10;2.78;;;;;;;29.94;23.56;100442.16;5092594;28;20036;-22
2021/09/25 11:03:42;;;;;;;5.55;2.15;;;;;;;29.77;23.55;100447.81;5092655;28;20554;-22
2021/09/25 11:06:40;;;;;;;4.38;2.63;;;;;;;29.90;24.35;100423.94;5092356;28;20122;-22
2021/09/25 11:09:15;;;;;;;6.65;2.90;;;;;;;29.77;24.41;100423.09;5092463;28;20034;-22
2021/09/25 11:11:52;;;;;;;4.75;2.22;;;;;;;30.07;23.36;100426.47;5092649;28;20036;-22
2021/09/25 11:14:23;;;;;;;4.30;2.30;;;;;;;30.31;23.46;100430.41;5092406;28;20032;-22
2021/09/25 11:17:18;;;;;;;4.57;2.70;;;;;;;30.94;23.23;100438.31;5092193;28;20081;-22
2021/09/25 11:19:50;;;;;;;4.13;2.30;;;;;;;31.13;22.80;100438.47;5081474;28;20048;-22
2021/09/25 11:22:20;;;;;;;4.70;2.45;;;;;;;30.87;22.75;100436.09;5092048;28;20020;-22